메인 페이지
METAR-TAF:

METAR-TAF

공항 :

San Fernando, 아르헨티나

위도: 34-27-11S, 경도: 058-35-23W, 고도: 3m

현재 날씨관측

예보는 38분 전, 16:00시(UTC)에 발표되었습니다.
13kt
온도 16°C
습도 72%
기압 1020 hPa
시정 10km 이상
고도 1900ft 상공 구름 많음
고도 2400ft 상공 구름 많음

METAR: SADF 201600Z 09013KT 9999 BKN019 BKN024 16/11 Q1020

시각: 13:38 (16:38 UTC)

예보

예보는 5 시간 38분 전, 11:00시(UTC)에 발표되었습니다.
예보 대상 시간: 20일 12시부터 21일 12시까지 (UTC)
남동10kt
시정 10km 이상
고도 2000ft 상공 구름 보통
일시적
20일 12시부터 20일 14시까지 (UTC)
동남동15kt
전환 중
20일 14시부터 20일 16시까지 (UTC)
15kt, 순간 최대 풍속 30kt
전환 중
20일 22시부터 20일 24시까지 (UTC)
고도 2000ft 상공 구름 많음
고도 6000ft 상공 흐림
전환 중
21일 02시부터 21일 04시까지 (UTC)
시정: 5000m
고도 1000ft 상공 구름 많음
고도 4000ft 상공 구름 조금, 타워링 적운.
고도 5000ft 상공 흐림
전환 중
21일 09시부터 21일 11시까지 (UTC)
10kt, 순간 최대 풍속 20kt
시정: 3000m
고도 800ft 상공 구름 많음
고도 4000ft 상공 구름 조금, 적란운.
고도 5000ft 상공 흐림
뇌우, 비,

TAF: SADF 201100Z 2012/2112 14010KT 9999 SCT020 TX15/2018Z TN13/2111Z TEMPO 2012/2014 12015KT BECMG 2014/2016 09015G30KT BECMG 2022/2024 BKN020 OVC060 BECMG 2102/2104 5000 RA BKN010 FEW040TCU OVC050 BECMG 2109/2111 09010G20KT 3000 TSRA BKN008 FEW040CB OVC050

4,000개 이상의 공항 관측 자료 및 예보 (METAR 및 TAF 보고).

지도상에서 검색 가능한 기상관측소가 노란 점과 빨간 점으로 표시되어 있습니다.

기상관측소 명을 보려면 표시 위로 마우스를 이동하세요.

날씨 관측과 예보를 보려면 클릭하세요.

지도 변경 : 확대하려면 엑스 표시가 있는 녹색 버튼, 축소하려면 빼기 표시가 있는 녹색 버튼, 다음 페이지의 지도를 보려면 녹색 화살표를 클릭하세요.


METAR-TAF: